createdAt,value
2019-03-17T00:02:11.023Z,2.23
2019-03-17T00:04:50.812Z,2.47
2019-03-17T00:07:31.511Z,2.70
2019-03-17T00:10:11.916Z,3.13
2019-03-17T00:12:51.297Z,2.23
2019-03-17T00:15:31.618Z,2.37
2019-03-17T00:18:11.694Z,2.40
2019-03-17T00:20:51.642Z,2.23
2019-03-17T00:23:31.603Z,2.13
2019-03-17T00:26:11.838Z,2.43
2019-03-17T00:31:38.320Z,2.30
2019-03-17T00:34:18.834Z,2.07
2019-03-17T00:36:58.462Z,3.00
2019-03-17T00:39:38.380Z,3.00
2019-03-17T00:42:22.229Z,2.53
2019-03-17T00:45:06.538Z,2.70
2019-03-17T00:47:46.699Z,3.00
2019-03-17T00:53:09.913Z,2.67
2019-03-17T00:55:50.078Z,1.87
2019-03-17T00:58:29.696Z,3.90
2019-03-17T01:01:10.166Z,2.13
2019-03-17T01:03:50.298Z,2.03
2019-03-17T01:06:33.745Z,2.10
2019-03-17T01:11:53.777Z,2.80
2019-03-17T01:14:33.668Z,3.10
2019-03-17T01:17:13.769Z,2.93
2019-03-17T01:22:39.887Z,5.93
2019-03-17T01:25:20.510Z,3.17
2019-03-17T01:28:00.101Z,2.70
2019-03-17T01:30:39.961Z,2.40
2019-03-17T01:33:19.865Z,3.93
2019-03-17T01:36:00.952Z,3.17
2019-03-17T01:38:41.595Z,2.93
2019-03-17T01:41:21.625Z,2.80
2019-03-17T01:44:01.162Z,2.40
2019-03-17T01:46:41.468Z,2.13
2019-03-17T01:49:21.430Z,1.93
2019-03-17T01:52:01.602Z,1.87
2019-03-17T01:54:42.195Z,2.40
2019-03-17T01:57:22.744Z,2.20
2019-03-17T02:00:02.590Z,1.70
2019-03-17T02:02:43.540Z,1.60
2019-03-17T02:08:03.319Z,2.03
2019-03-17T02:10:43.676Z,2.30
2019-03-17T02:13:23.497Z,2.33
2019-03-17T02:16:03.729Z,1.90
2019-03-17T02:18:44.049Z,1.83
2019-03-17T02:21:23.696Z,2.07
2019-03-17T02:24:04.091Z,2.17
2019-03-17T02:26:44.361Z,1.53
2019-03-17T02:29:24.821Z,2.07
2019-03-17T02:34:54.121Z,1.53
2019-03-17T02:37:33.611Z,2.17
2019-03-17T02:40:13.928Z,2.20
2019-03-17T02:42:53.918Z,2.50
2019-03-17T02:45:33.505Z,2.40
2019-03-17T02:48:20.546Z,2.10
2019-03-17T02:51:00.961Z,2.33
2019-03-17T02:53:40.696Z,1.80
2019-03-17T02:56:20.830Z,3.00
2019-03-17T02:59:04.433Z,2.20
2019-03-17T03:01:43.794Z,2.80
2019-03-17T03:04:24.322Z,2.50
2019-03-17T03:07:07.915Z,2.07
2019-03-17T03:09:52.006Z,4.27
2019-03-17T03:12:32.782Z,1.80
2019-03-17T03:15:13.107Z,2.00
2019-03-17T03:17:54.758Z,2.13
2019-03-17T03:20:34.160Z,2.43
2019-03-17T03:23:14.462Z,2.10
2019-03-17T03:25:54.531Z,2.30
2019-03-17T03:28:34.800Z,2.37
2019-03-17T03:31:03.257Z,4.80
2019-03-17T03:33:53.133Z,1.60
2019-03-17T03:39:13.501Z,3.10
2019-03-17T03:41:41.141Z,2.00
2019-03-17T03:44:28.126Z,2.40
2019-03-17T03:47:08.393Z,2.50
2019-03-17T03:49:48.563Z,2.03
2019-03-17T03:52:28.449Z,2.33
2019-03-17T03:55:08.438Z,2.47
2019-03-17T03:57:50.290Z,2.67
2019-03-17T04:00:30.743Z,2.53
2019-03-17T04:03:10.876Z,2.93
2019-03-17T04:05:51.480Z,2.83
2019-03-17T04:08:30.990Z,2.30
2019-03-17T04:11:11.442Z,2.17
2019-03-17T04:13:51.528Z,1.70
2019-03-17T04:16:31.552Z,1.90
2019-03-17T04:18:58.922Z,3.13
2019-03-17T04:21:45.629Z,2.70
2019-03-17T04:24:25.980Z,2.20
2019-03-17T04:29:52.064Z,2.33
2019-03-17T04:32:32.450Z,3.63
2019-03-17T04:35:12.350Z,2.70
2019-03-17T04:37:52.526Z,2.60
2019-03-17T04:40:33.360Z,3.30
2019-03-17T04:43:12.839Z,2.60
2019-03-17T04:45:53.777Z,2.17
2019-03-17T04:51:20.481Z,2.40
2019-03-17T04:54:00.027Z,2.17
2019-03-17T04:56:40.293Z,2.73
2019-03-17T04:59:20.189Z,1.70
2019-03-17T05:02:00.543Z,2.80
2019-03-17T05:04:44.588Z,1.90
2019-03-17T05:13:16.635Z,2.70
2019-03-17T05:16:03.629Z,3.17
2019-03-17T05:18:44.030Z,3.00
2019-03-17T05:21:24.127Z,10.47
2019-03-17T05:24:04.483Z,2.80
2019-03-17T05:26:44.432Z,2.37
2019-03-17T05:29:24.575Z,2.73
2019-03-17T05:32:05.220Z,2.20
2019-03-17T05:34:49.186Z,2.03
2019-03-17T05:37:29.039Z,2.10
2019-03-17T05:40:08.880Z,2.50
2019-03-17T05:42:48.824Z,2.97
2019-03-17T05:45:29.014Z,2.10
2019-03-17T05:48:09.419Z,3.17
2019-03-17T05:50:50.031Z,2.37
2019-03-17T05:53:30.703Z,2.87
2019-03-17T05:56:11.960Z,3.03
2019-03-17T05:58:53.263Z,2.93
2019-03-17T06:01:35.451Z,2.17
2019-03-17T06:04:04.302Z,1.80
2019-03-17T06:06:51.209Z,3.97
2019-03-17T06:09:31.779Z,2.40
2019-03-17T06:14:45.674Z,2.80
2019-03-17T06:17:32.345Z,2.13
2019-03-17T06:20:12.406Z,2.30
2019-03-17T06:22:53.371Z,2.73
2019-03-17T06:25:36.940Z,2.37
2019-03-17T06:28:04.085Z,3.47
2019-03-17T06:30:31.275Z,3.57
2019-03-17T06:32:58.875Z,2.20
2019-03-17T06:35:40.756Z,2.70
2019-03-17T06:38:23.067Z,3.17
2019-03-17T06:40:50.459Z,2.27
2019-03-17T06:43:37.266Z,1.90
2019-03-17T06:46:05.102Z,2.07
2019-03-17T06:48:54.052Z,1.97
2019-03-17T06:51:33.648Z,2.27
2019-03-17T06:54:14.293Z,4.77
2019-03-17T06:57:00.296Z,2.30
2019-03-17T06:59:40.392Z,3.10
2019-03-17T07:02:20.311Z,2.63
2019-03-17T07:05:00.962Z,3.20
2019-03-17T07:07:44.279Z,2.00
2019-03-17T07:10:25.548Z,2.50
2019-03-17T07:13:05.717Z,3.77
2019-03-17T07:15:49.377Z,2.27
2019-03-17T07:18:29.683Z,1.90
2019-03-17T07:21:10.255Z,3.87
2019-03-17T07:26:37.184Z,2.20
2019-03-17T07:29:17.679Z,4.77
2019-03-17T07:31:57.582Z,2.80
2019-03-17T07:34:37.834Z,2.57
2019-03-17T07:37:17.734Z,2.20
2019-03-17T07:39:58.297Z,3.03
2019-03-17T07:42:38.766Z,2.73
2019-03-17T07:45:19.094Z,2.70
2019-03-17T07:48:02.606Z,4.30
2019-03-17T07:50:43.607Z,2.87
2019-03-17T07:53:23.615Z,3.70
2019-03-17T07:56:02.918Z,2.87
2019-03-17T07:58:43.915Z,5.80
2019-03-17T08:01:25.933Z,3.53
2019-03-17T08:04:05.349Z,3.90
2019-03-17T08:06:45.485Z,3.73
2019-03-17T08:12:05.232Z,3.90
2019-03-17T08:14:45.727Z,3.20
2019-03-17T08:17:27.751Z,3.00
2019-03-17T08:20:08.124Z,3.67
2019-03-17T08:22:48.114Z,3.20
2019-03-17T08:25:28.405Z,7.03
2019-03-17T08:27:55.812Z,2.70
2019-03-17T08:30:36.003Z,4.13
2019-03-17T08:33:16.245Z,3.53
2019-03-17T08:35:57.133Z,5.03
2019-03-17T08:38:36.820Z,3.27
2019-03-17T08:41:16.629Z,3.57
2019-03-17T08:43:57.032Z,4.90
2019-03-17T08:46:37.106Z,2.33
2019-03-17T08:49:17.159Z,3.03
2019-03-17T08:51:57.620Z,3.50
2019-03-17T08:54:37.459Z,3.60
2019-03-17T08:57:18.483Z,3.03
2019-03-17T08:59:59.046Z,2.53
2019-03-17T09:02:41.205Z,4.13
2019-03-17T09:05:21.103Z,3.27
2019-03-17T09:08:01.064Z,2.77
2019-03-17T09:10:42.590Z,4.43
2019-03-17T09:13:22.145Z,3.03
2019-03-17T09:16:02.267Z,8.97
2019-03-17T09:18:42.371Z,3.17
2019-03-17T09:21:22.428Z,2.70
2019-03-17T09:24:02.674Z,2.70
2019-03-17T09:26:44.483Z,3.10
2019-03-17T09:29:24.718Z,4.73
2019-03-17T09:32:04.997Z,3.90
2019-03-17T09:34:45.209Z,4.33
2019-03-17T09:37:25.353Z,1.93
2019-03-17T09:40:06.086Z,2.97
2019-03-17T09:45:32.655Z,4.27
2019-03-17T09:48:13.522Z,4.60
2019-03-17T09:50:52.918Z,2.63
2019-03-17T09:53:33.684Z,4.43
2019-03-17T09:56:13.637Z,3.10
2019-03-17T10:01:27.535Z,3.00
2019-03-17T10:04:14.591Z,3.23
2019-03-17T10:06:54.786Z,3.97
2019-03-17T10:09:38.250Z,6.50
2019-03-17T10:18:01.253Z,4.07
2019-03-17T10:20:48.197Z,4.10
2019-03-17T10:23:27.684Z,4.27
2019-03-17T10:25:56.254Z,3.80
2019-03-17T10:28:23.355Z,7.60
2019-03-17T10:33:37.241Z,4.33
2019-03-17T10:36:05.085Z,5.03
2019-03-17T10:38:32.490Z,4.60
2019-03-17T10:40:59.432Z,3.10
2019-03-17T10:43:26.922Z,3.80
2019-03-17T10:45:53.781Z,7.00
2019-03-17T10:54:22.175Z,6.87
2019-03-17T10:57:02.274Z,5.80
2019-03-17T10:59:42.224Z,3.70
2019-03-17T11:02:33.089Z,3.87
2019-03-17T11:05:18.168Z,3.43
2019-03-17T11:10:45.397Z,0.47
2019-03-17T11:13:31.292Z,0.50
2019-03-17T11:18:58.328Z,0.50
2019-03-17T11:24:24.820Z,1.00
2019-03-17T11:27:04.481Z,0.40
2019-03-17T11:32:26.329Z,0.40
2019-03-17T11:34:53.930Z,0.60
2019-03-17T11:37:23.664Z,0.47
2019-03-17T11:48:12.027Z,0.63
2019-03-17T11:50:59.046Z,0.60
2019-03-17T11:56:30.675Z,0.50
2019-03-17T11:58:58.305Z,1.17
2019-03-17T12:01:25.468Z,1.30
2019-03-17T12:03:53.095Z,1.43
2019-03-17T12:06:21.489Z,1.30
2019-03-17T12:08:49.611Z,0.90
2019-03-17T12:11:17.081Z,0.73
2019-03-17T12:16:40.397Z,1.13
2019-03-17T12:19:08.673Z,0.73
2019-03-17T12:22:08.223Z,0.53
2019-03-17T12:24:57.526Z,0.73
2019-03-17T12:30:31.400Z,0.40
2019-03-17T12:35:54.712Z,0.50
2019-03-17T12:38:21.669Z,0.87
2019-03-17T12:40:49.059Z,1.23
2019-03-17T12:43:16.215Z,1.07
2019-03-17T12:45:43.402Z,0.85
2019-03-17T12:48:11.101Z,0.57
2019-03-17T12:50:39.062Z,0.90
2019-03-17T12:53:07.922Z,1.53
2019-03-17T12:55:55.490Z,0.70
2019-03-17T12:58:36.176Z,0.93
2019-03-17T13:01:20.174Z,0.50
2019-03-17T13:04:03.635Z,0.60
2019-03-17T13:06:47.473Z,0.68
2019-03-17T13:09:15.506Z,0.70
2019-03-17T13:12:02.674Z,1.72
2019-03-17T13:17:38.092Z,0.50
2019-03-17T13:20:20.566Z,0.88
2019-03-17T13:22:48.042Z,0.50
2019-03-17T13:25:35.367Z,0.50
2019-03-17T13:28:15.742Z,0.50
2019-03-17T13:33:50.154Z,0.40
2019-03-17T13:36:34.887Z,1.05
2019-03-17T13:39:15.200Z,0.70
2019-03-17T13:41:57.364Z,0.57
2019-03-17T13:44:25.089Z,0.60
2019-03-17T13:47:14.726Z,0.60
2019-03-17T13:49:56.570Z,1.10
2019-03-17T13:55:20.815Z,0.60
2019-03-17T14:00:57.359Z,0.60
2019-03-17T14:03:37.618Z,0.40
2019-03-17T14:06:21.471Z,0.50
2019-03-17T14:08:48.968Z,1.20
2019-03-17T14:11:16.445Z,1.42
2019-03-17T14:13:43.654Z,0.90
2019-03-17T14:16:11.494Z,1.83
2019-03-17T14:18:38.888Z,1.30
2019-03-17T14:21:07.094Z,1.00
2019-03-17T14:23:34.277Z,0.80
2019-03-17T14:26:01.279Z,1.40
2019-03-17T14:28:29.319Z,0.80
2019-03-17T14:30:57.794Z,1.20
2019-03-17T14:33:24.779Z,1.10
2019-03-17T14:35:51.811Z,1.00
2019-03-17T14:38:18.811Z,1.23
2019-03-17T14:40:53.241Z,1.67
2019-03-17T14:43:19.667Z,1.20
2019-03-17T14:45:47.196Z,1.40
2019-03-17T14:48:27.983Z,0.70
2019-03-17T14:51:09.290Z,0.60
2019-03-17T14:56:40.765Z,0.70
2019-03-17T14:59:21.675Z,0.50
2019-03-17T15:02:08.307Z,0.50
2019-03-17T15:04:49.302Z,0.60
2019-03-17T15:07:29.760Z,0.80
2019-03-17T15:12:59.778Z,0.50
2019-03-17T15:15:41.823Z,0.40
2019-03-17T15:18:21.863Z,0.60
2019-03-17T15:20:48.923Z,0.63
2019-03-17T15:23:16.206Z,0.53
2019-03-17T15:25:43.832Z,1.33
2019-03-17T15:28:11.180Z,2.47
2019-03-17T15:30:38.256Z,0.80
2019-03-17T15:33:05.605Z,0.70
2019-03-17T15:35:32.975Z,0.50
2019-03-17T15:38:00.775Z,0.70
2019-03-17T15:40:28.325Z,1.30
2019-03-17T15:42:55.654Z,1.10
2019-03-17T15:45:25.108Z,1.50
2019-03-17T15:47:58.693Z,1.17
2019-03-17T15:50:27.212Z,1.20
2019-03-17T15:52:54.817Z,1.07
2019-03-17T15:55:22.315Z,0.80
2019-03-17T15:57:49.721Z,1.33
2019-03-17T16:00:24.614Z,1.27
2019-03-17T16:02:46.799Z,0.53
2019-03-17T16:05:30.485Z,0.60
2019-03-17T16:07:58.114Z,0.40
2019-03-17T16:10:25.705Z,0.60
2019-03-17T16:12:53.147Z,0.50
2019-03-17T16:15:20.916Z,0.70
2019-03-17T16:17:48.745Z,0.57
2019-03-17T16:20:16.724Z,0.70
2019-03-17T16:22:47.246Z,0.50
2019-03-17T16:25:14.945Z,0.60
2019-03-17T16:27:41.983Z,0.80
2019-03-17T16:30:29.127Z,0.40
2019-03-17T16:33:11.588Z,0.70
2019-03-17T16:39:01.560Z,0.83
2019-03-17T16:41:43.767Z,0.40
2019-03-17T16:44:24.236Z,0.40
2019-03-17T16:47:04.516Z,0.62
2019-03-17T16:52:35.449Z,0.80
2019-03-17T16:57:56.530Z,0.90
2019-03-17T17:00:23.655Z,0.70
2019-03-17T17:02:51.445Z,0.70
2019-03-17T17:05:18.753Z,0.62
2019-03-17T17:07:46.424Z,0.40
2019-03-17T17:10:15.166Z,1.02
2019-03-17T17:12:42.697Z,0.85
2019-03-17T17:15:12.784Z,0.60
2019-03-17T17:17:40.761Z,0.78
2019-03-17T17:20:13.624Z,1.05
2019-03-17T17:22:41.573Z,0.82
2019-03-17T17:25:21.807Z,0.50
2019-03-17T17:27:49.130Z,0.62
2019-03-17T17:30:36.251Z,0.57
2019-03-17T17:33:27.716Z,0.45
2019-03-17T17:36:15.264Z,0.70
2019-03-17T17:39:03.140Z,0.78
2019-03-17T17:41:43.626Z,0.50
2019-03-17T17:44:23.419Z,0.62
2019-03-17T17:47:02.976Z,0.42
2019-03-17T17:49:43.086Z,0.50
2019-03-17T17:52:23.248Z,0.80
2019-03-17T17:57:52.820Z,3.37
2019-03-17T18:03:22.570Z,0.60
2019-03-17T18:06:06.995Z,0.93
2019-03-17T18:08:46.624Z,0.60
2019-03-17T18:11:28.655Z,0.55
2019-03-17T18:14:09.173Z,0.35
2019-03-17T18:19:34.935Z,0.50
2019-03-17T18:25:06.547Z,0.70
2019-03-17T18:27:47.049Z,0.55
2019-03-17T18:30:14.811Z,0.60
2019-03-17T18:33:04.017Z,0.57
2019-03-17T18:35:44.224Z,0.50
2019-03-17T18:38:23.897Z,0.53
2019-03-17T18:41:03.312Z,0.50
2019-03-17T18:43:43.329Z,0.55
2019-03-17T18:46:24.213Z,0.90
2019-03-17T18:49:04.581Z,0.40
2019-03-17T18:51:44.489Z,0.50
2019-03-17T18:54:25.155Z,0.60
2019-03-17T18:57:04.990Z,0.50
2019-03-17T18:59:46.004Z,0.40
2019-03-17T19:02:27.567Z,0.72
2019-03-17T19:05:07.796Z,0.50
2019-03-17T19:10:32.014Z,0.40
2019-03-17T19:13:10.791Z,0.60
2019-03-17T19:15:57.574Z,0.50
2019-03-17T19:18:37.803Z,0.40
2019-03-17T19:21:17.844Z,0.42
2019-03-17T19:23:58.304Z,0.40
2019-03-17T19:26:38.784Z,0.50
2019-03-17T19:29:19.450Z,0.40
2019-03-17T19:32:01.380Z,0.60
2019-03-17T19:37:37.306Z,0.47
2019-03-17T19:40:17.284Z,0.50
2019-03-17T19:42:59.680Z,0.40
2019-03-17T19:45:44.080Z,0.50
2019-03-17T19:51:20.166Z,0.50
2019-03-17T19:53:59.867Z,0.40
2019-03-17T19:56:39.839Z,0.47
2019-03-17T19:59:19.829Z,0.50
2019-03-17T20:02:01.536Z,0.45
2019-03-17T20:04:40.972Z,0.40
2019-03-17T20:07:21.388Z,0.40
2019-03-17T20:10:01.911Z,0.40
2019-03-17T20:12:42.082Z,0.40
2019-03-17T20:15:22.508Z,0.50
2019-03-17T20:18:03.350Z,0.40
2019-03-17T20:20:43.971Z,0.40
2019-03-17T20:23:24.704Z,0.55
2019-03-17T20:25:52.242Z,0.50
2019-03-17T20:28:39.780Z,0.40
2019-03-17T20:31:19.569Z,0.40
2019-03-17T20:34:00.401Z,0.50
2019-03-17T20:36:40.811Z,0.50
2019-03-17T20:39:20.944Z,0.50
2019-03-17T20:44:38.155Z,0.40
2019-03-17T20:47:25.206Z,0.60
2019-03-17T20:50:04.590Z,0.35
2019-03-17T20:52:44.996Z,0.50
2019-03-17T20:55:25.115Z,0.45
2019-03-17T20:58:04.806Z,0.40
2019-03-17T21:00:44.808Z,0.50
2019-03-17T21:03:26.549Z,0.40
2019-03-17T21:06:06.848Z,0.40
2019-03-17T21:08:46.983Z,0.45
2019-03-17T21:11:28.343Z,0.45
2019-03-17T21:14:08.923Z,0.40
2019-03-17T21:16:37.231Z,0.40
2019-03-17T21:19:24.774Z,0.45
2019-03-17T21:22:05.457Z,0.70
2019-03-17T21:24:44.979Z,0.40
2019-03-17T21:27:25.151Z,0.53
2019-03-17T21:30:04.668Z,0.50
2019-03-17T21:32:45.775Z,0.50
2019-03-17T21:35:13.016Z,0.90
2019-03-17T21:38:01.676Z,0.65
2019-03-17T21:40:56.467Z,0.70
2019-03-17T21:43:11.425Z,0.40
2019-03-17T21:45:58.067Z,0.60
2019-03-17T21:48:37.962Z,0.40
2019-03-17T21:51:18.118Z,0.53
2019-03-17T21:54:02.203Z,0.40
2019-03-17T21:59:31.965Z,0.50
2019-03-17T22:02:13.293Z,0.50
2019-03-17T22:04:53.042Z,0.50
2019-03-17T22:07:33.125Z,0.62
2019-03-17T22:10:13.619Z,0.47
2019-03-17T22:12:53.211Z,0.40
2019-03-17T22:15:33.423Z,0.40
2019-03-17T22:18:13.242Z,0.40
2019-03-17T22:20:40.618Z,0.50
2019-03-17T22:23:47.183Z,0.60
2019-03-17T22:26:27.357Z,0.45
2019-03-17T22:29:13.486Z,0.60
2019-03-17T22:31:53.628Z,0.95
2019-03-17T22:34:33.207Z,0.40
2019-03-17T22:37:16.981Z,0.40
2019-03-17T22:39:58.748Z,0.50
2019-03-17T22:42:38.813Z,0.60
2019-03-17T22:45:06.632Z,0.53
2019-03-17T22:47:53.763Z,0.57
2019-03-17T22:50:34.478Z,0.78
2019-03-17T22:53:14.004Z,0.50
2019-03-17T22:55:53.895Z,0.53
2019-03-17T22:58:35.730Z,0.40
2019-03-17T23:01:44.498Z,0.60
2019-03-17T23:04:31.255Z,0.50
2019-03-17T23:07:10.563Z,0.50
2019-03-17T23:09:51.847Z,0.70
2019-03-17T23:12:36.020Z,0.50
2019-03-17T23:18:01.533Z,0.60
2019-03-17T23:20:41.980Z,0.50
2019-03-17T23:23:22.051Z,0.40
2019-03-17T23:26:06.021Z,0.40
2019-03-17T23:31:23.421Z,0.40
2019-03-17T23:34:12.315Z,0.50
2019-03-17T23:36:52.570Z,0.40
2019-03-17T23:39:19.989Z,0.50
2019-03-17T23:41:47.070Z,0.55
2019-03-17T23:44:16.350Z,0.40
2019-03-17T23:47:03.653Z,0.40
2019-03-17T23:49:44.129Z,0.40
2019-03-17T23:55:07.765Z,0.60
2019-03-17T23:57:47.984Z,0.50
